Time;durP1;ratioP1;P1;durP2;ratioP2;P2;SDS_P1;SDS_P2;PMS_P1;PMS_P2;Temp;Humidity;BMP_temperature;BMP_pressure;BME280_temperature;BME280_humidity;BME280_pressure;Samples;Min_cycle;Max_cycle;Signal;HPM_P1;HPM_P2
2022/07/22 00:00:11;;;;;;;8.00;2.97;;;;;;;18.94;68.82;100867.31;4899462;29;20053;-76
2022/07/22 00:02:36;;;;;;;10.60;3.70;;;;;;;18.81;69.41;100854.28;4870372;29;20056;-75
2022/07/22 00:05:02;;;;;;;7.00;3.25;;;;;;;18.71;69.48;100860.84;4869745;29;20085;-75
2022/07/22 00:07:27;;;;;;;9.93;3.63;;;;;;;18.60;70.13;100854.72;4885112;29;20040;-75
2022/07/22 00:09:53;;;;;;;6.93;2.80;;;;;;;18.62;70.32;100846.91;4904494;29;20029;-77
2022/07/22 00:12:18;;;;;;;5.78;3.08;;;;;;;18.62;70.15;100851.66;4883373;29;20112;-76
2022/07/22 00:14:44;;;;;;;6.80;2.50;;;;;;;18.68;69.91;100847.63;4870904;29;20502;-76
2022/07/22 00:17:09;;;;;;;8.23;3.20;;;;;;;18.70;70.47;100856.44;4881902;29;20047;-76
2022/07/22 00:19:35;;;;;;;11.82;3.65;;;;;;;18.69;71.14;100852.03;4890292;29;20492;-76
2022/07/22 00:22:01;;;;;;;6.07;2.63;;;;;;;18.55;71.26;100851.25;4883888;29;20040;-76
2022/07/22 00:24:27;;;;;;;6.63;3.05;;;;;;;18.50;71.72;100852.19;4850101;29;20021;-76
2022/07/22 00:26:52;;;;;;;6.32;2.60;;;;;;;18.53;71.42;100853.47;4880244;29;20096;-76
2022/07/22 00:29:18;;;;;;;7.10;2.67;;;;;;;18.51;71.32;100848.25;4883762;29;20040;-76
2022/07/22 00:31:43;;;;;;;10.18;4.07;;;;;;;18.54;71.89;100855.94;4884729;29;20060;-77
2022/07/22 00:34:09;;;;;;;7.45;3.10;;;;;;;18.53;72.18;100853.47;4879780;29;20036;-76
2022/07/22 00:36:34;;;;;;;5.78;2.60;;;;;;;18.51;71.52;100851.03;4863787;29;20037;-77
2022/07/22 00:38:59;;;;;;;8.13;2.83;;;;;;;18.44;71.62;100857.00;4851028;29;20021;-77
2022/07/22 00:41:25;;;;;;;8.13;3.30;;;;;;;18.36;73.07;100859.66;4871862;29;20542;-77
2022/07/22 00:44:03;;;;;;;9.30;2.80;;;;;;;18.27;73.41;100863.13;4882312;29;20062;-77
2022/07/22 00:46:30;;;;;;;13.88;3.33;;;;;;;18.29;73.39;100860.06;4886855;29;20032;-77
2022/07/22 00:48:56;;;;;;;9.90;3.10;;;;;;;18.29;73.48;100855.34;4884729;29;20127;-76
2022/07/22 00:51:23;;;;;;;6.55;2.15;;;;;;;18.26;73.25;100850.41;4869561;29;20040;-76
2022/07/22 00:53:49;;;;;;;8.55;2.75;;;;;;;18.39;73.14;100859.03;4889611;29;20040;-78
2022/07/22 00:56:16;;;;;;;8.68;2.88;;;;;;;18.47;72.83;100866.59;4903044;29;20036;-76
2022/07/22 00:58:42;;;;;;;8.70;2.83;;;;;;;18.50;72.87;100866.03;4884978;29;20032;-76
2022/07/22 01:01:09;;;;;;;5.72;2.80;;;;;;;18.54;72.77;100866.22;4898986;29;20036;-77
2022/07/22 01:03:35;;;;;;;9.32;2.53;;;;;;;18.45;72.80;100857.81;4903371;29;20039;-78
2022/07/22 01:06:02;;;;;;;5.82;2.33;;;;;;;18.37;72.38;100856.59;4888904;29;20054;-77
2022/07/22 01:08:29;;;;;;;9.50;2.97;;;;;;;18.37;72.40;100864.91;4902147;29;20033;-76
2022/07/22 01:11:08;;;;;;;9.88;2.63;;;;;;;18.35;72.90;100874.63;4900439;29;20037;-77
2022/07/22 01:13:44;;;;;;;8.38;2.40;;;;;;;18.28;72.93;100873.09;4891617;29;20052;-77
2022/07/22 01:16:11;;;;;;;11.43;2.83;;;;;;;18.30;72.45;100868.06;4887591;29;20037;-76
2022/07/22 01:18:38;;;;;;;6.50;2.17;;;;;;;18.34;72.56;100872.97;4872975;29;20025;-76
2022/07/22 01:21:08;;;;;;;12.15;2.72;;;;;;;18.34;72.89;100870.22;4863745;29;20021;-75
2022/07/22 01:23:35;;;;;;;5.32;1.70;;;;;;;18.31;72.38;100875.25;4877191;29;20025;-75
2022/07/22 01:26:03;;;;;;;5.55;2.50;;;;;;;18.27;72.20;100873.41;4886431;29;20034;-76
2022/07/22 01:28:29;;;;;;;10.13;2.70;;;;;;;18.23;72.72;100867.66;4872990;29;20043;-75
2022/07/22 01:31:09;;;;;;;9.45;2.30;;;;;;;18.21;72.57;100863.53;4885193;29;20029;-76
2022/07/22 01:33:36;;;;;;;4.40;2.28;;;;;;;18.23;72.99;100870.41;4887793;29;20143;-76
2022/07/22 01:36:05;;;;;;;4.60;1.80;;;;;;;18.26;72.62;100853.19;4905213;29;20055;-75
2022/07/22 01:38:30;;;;;;;12.65;2.95;;;;;;;18.30;72.72;100864.47;4902632;29;20055;-76
2022/07/22 01:40:56;;;;;;;1.80;1.25;;;;;;;18.31;72.28;100858.63;4901052;29;20073;-77
2022/07/22 01:43:22;;;;;;;3.90;1.40;;;;;;;18.44;71.77;100867.22;4899502;29;20043;-76
2022/07/22 01:45:51;;;;;;;4.40;1.73;;;;;;;18.44;71.75;100859.75;4870580;29;20068;-76
2022/07/22 01:48:16;;;;;;;2.60;1.33;;;;;;;18.48;71.78;100865.50;4895901;29;20032;-78
2022/07/22 01:50:42;;;;;;;6.03;1.75;;;;;;;18.47;71.46;100861.06;4888289;29;20035;-76
2022/07/22 01:53:08;;;;;;;1.80;1.10;;;;;;;18.51;71.60;100856.56;4905802;29;20024;-76
2022/07/22 01:55:34;;;;;;;2.83;1.20;;;;;;;18.56;71.19;100850.94;4906938;29;20039;-77
2022/07/22 01:57:59;;;;;;;4.13;1.42;;;;;;;18.63;70.85;100858.81;4904189;29;20028;-77
2022/07/22 02:00:25;;;;;;;0.82;0.82;;;;;;;18.67;70.96;100860.66;4890055;29;20502;-76
2022/07/22 02:02:51;;;;;;;2.85;1.30;;;;;;;18.72;70.67;100850.59;4901953;29;21226;-77
2022/07/22 02:05:21;;;;;;;3.50;1.50;;;;;;;18.76;70.54;100852.44;4871091;29;20037;-76
2022/07/22 02:07:47;;;;;;;3.15;1.23;;;;;;;18.79;70.36;100853.75;4878118;29;20033;-76
2022/07/22 02:10:13;;;;;;;3.53;1.40;;;;;;;18.82;70.63;100850.34;4901379;29;20105;-74
2022/07/22 02:12:39;;;;;;;6.60;1.42;;;;;;;18.89;69.92;100853.56;4903748;29;20070;-75
2022/07/22 02:15:05;;;;;;;2.42;1.00;;;;;;;18.94;69.55;100847.91;4901305;29;20043;-75
2022/07/22 02:17:32;;;;;;;2.95;1.40;;;;;;;18.95;69.91;100849.56;4891564;29;20033;-77
2022/07/22 02:19:58;;;;;;;2.28;1.17;;;;;;;18.93;69.89;100845.44;4886270;29;20027;-76
2022/07/22 02:22:35;;;;;;;3.10;1.00;;;;;;;18.92;69.57;100850.16;4872690;29;20404;-77
2022/07/22 02:25:28;;;;;;;1.95;1.17;;;;;;;18.93;69.63;100843.47;4900394;29;20029;-77
2022/07/22 02:27:52;;;;;;;2.53;1.17;;;;;;;19.00;69.59;100852.19;4901802;29;20059;-76
2022/07/22 02:30:18;;;;;;;2.47;0.80;;;;;;;18.98;69.79;100843.38;4886726;29;20033;-78
2022/07/22 02:32:43;;;;;;;3.63;1.23;;;;;;;18.97;69.41;100836.19;4881176;29;20017;-76
2022/07/22 02:35:09;;;;;;;4.38;1.10;;;;;;;19.00;69.05;100841.09;4883321;29;20036;-78
2022/07/22 02:37:36;;;;;;;3.55;1.20;;;;;;;19.00;69.36;100841.09;4879298;29;20060;-77
2022/07/22 02:40:13;;;;;;;1.95;1.00;;;;;;;19.01;69.62;100845.53;4900116;29;20009;-77
2022/07/22 02:42:40;;;;;;;1.77;0.90;;;;;;;19.05;69.60;100842.13;4885249;29;20025;-78
2022/07/22 02:45:17;;;;;;;2.78;0.73;;;;;;;18.93;69.19;100835.16;4903112;29;20021;-76
2022/07/22 02:47:50;;;;;;;3.45;1.33;;;;;;;18.91;69.73;100837.44;4897392;29;20072;-76
2022/07/22 02:50:16;;;;;;;3.25;1.00;;;;;;;18.78;69.98;100839.09;4887019;29;20029;-77
2022/07/22 02:52:42;;;;;;;2.88;1.08;;;;;;;18.69;69.57;100829.03;4899379;29;20029;-77
2022/07/22 02:55:08;;;;;;;2.05;0.90;;;;;;;18.62;69.79;100824.75;4901744;29;20029;-77
2022/07/22 02:57:34;;;;;;;2.20;1.20;;;;;;;18.54;70.18;100822.72;4882829;29;20021;-78
2022/07/22 02:59:59;;;;;;;2.88;1.05;;;;;;;18.52;70.34;100813.09;4873747;29;20093;-77
2022/07/22 03:02:25;;;;;;;1.00;0.70;;;;;;;18.48;70.60;100813.69;4873244;29;20040;-77
2022/07/22 03:04:53;;;;;;;2.53;0.70;;;;;;;18.51;70.58;100820.56;4863273;29;20100;-76
2022/07/22 03:07:29;;;;;;;5.25;0.95;;;;;;;18.46;70.52;100804.06;4898619;29;20071;-76
2022/07/22 03:12:55;;;;;;;;;;;;;;;18.51;69.48;100809.50;4866339;29;20053;-76
2022/07/22 03:15:20;;;;;;;4.38;1.48;;;;;;;18.50;69.15;100802.34;4883542;29;19926;-77
2022/07/22 03:17:45;;;;;;;2.97;1.10;;;;;;;18.47;68.63;100789.91;4908185;29;20032;-76
2022/07/22 03:20:11;;;;;;;3.70;1.20;;;;;;;18.53;68.58;100782.31;4856732;29;20033;-77
2022/07/22 03:22:37;;;;;;;5.80;1.33;;;;;;;18.51;67.96;100790.09;4873373;29;20035;-77
2022/07/22 03:25:04;;;;;;;3.95;1.20;;;;;;;18.47;67.88;100791.84;4871455;29;20109;-77
2022/07/22 03:27:29;;;;;;;2.70;0.90;;;;;;;18.54;67.13;100788.66;4854574;29;20109;-77
2022/07/22 03:29:55;;;;;;;4.00;1.50;;;;;;;18.49;66.73;100795.94;4886080;29;20028;-76
2022/07/22 03:32:21;;;;;;;3.05;1.08;;;;;;;18.37;66.62;100783.75;4856222;29;20048;-77
2022/07/22 03:34:46;;;;;;;3.28;0.77;;;;;;;18.44;67.08;100811.84;4887607;29;20060;-76
2022/07/22 03:37:13;;;;;;;3.28;1.10;;;;;;;18.41;66.20;100809.72;4897069;29;20037;-77
2022/07/22 03:39:39;;;;;;;2.03;0.82;;;;;;;18.31;66.16;100792.19;4864607;29;20101;-77
2022/07/22 03:42:04;;;;;;;2.40;0.90;;;;;;;18.33;66.14;100782.78;4870247;29;20056;-76
2022/07/22 03:44:33;;;;;;;1.95;0.80;;;;;;;18.28;66.14;100781.75;4900343;29;20033;-77
2022/07/22 03:46:58;;;;;;;14.48;1.33;;;;;;;18.25;66.05;100774.06;4867923;29;20029;-77
2022/07/22 03:49:24;;;;;;;2.15;0.95;;;;;;;18.36;65.99;100776.63;4854296;29;20048;-77
2022/07/22 03:51:50;;;;;;;1.92;0.80;;;;;;;18.39;65.54;100773.22;4866355;29;20041;-76
2022/07/22 03:54:15;;;;;;;1.77;0.88;;;;;;;18.31;65.72;100758.13;4902092;29;20020;-77
2022/07/22 03:56:41;;;;;;;2.53;1.15;;;;;;;18.30;65.48;100762.88;4900899;29;20035;-78
2022/07/22 03:59:07;;;;;;;2.22;0.95;;;;;;;18.26;65.88;100767.38;4898467;29;20033;-76
2022/07/22 04:01:33;;;;;;;3.95;1.00;;;;;;;18.23;65.53;100762.47;4902483;29;20475;-77
2022/07/22 04:03:58;;;;;;;4.05;0.82;;;;;;;18.30;64.78;100762.88;4887245;29;20032;-77
2022/07/22 04:06:23;;;;;;;2.38;0.80;;;;;;;18.31;65.26;100770.06;4861282;29;20017;-76
2022/07/22 04:08:49;;;;;;;4.55;1.02;;;;;;;18.28;65.22;100765.13;4903922;29;20052;-76
2022/07/22 04:11:16;;;;;;;1.70;0.65;;;;;;;18.15;64.45;100746.59;4870608;29;20056;-76
2022/07/22 04:13:43;;;;;;;1.10;0.50;;;;;;;18.10;65.07;100749.47;4901104;29;20124;-77
2022/07/22 04:16:09;;;;;;;1.35;0.90;;;;;;;18.10;64.53;100744.75;4887363;29;20495;-77
2022/07/22 04:18:35;;;;;;;1.35;0.70;;;;;;;18.06;64.50;100749.28;4870472;29;20084;-75
2022/07/22 04:21:00;;;;;;;3.25;0.90;;;;;;;18.11;64.56;100762.19;4887471;29;20467;-77
2022/07/22 04:23:26;;;;;;;4.53;0.70;;;;;;;18.07;64.57;100764.72;4881441;29;20025;-77
2022/07/22 04:25:52;;;;;;;2.67;0.88;;;;;;;18.06;64.92;100752.03;4883685;29;20039;-78
2022/07/22 04:28:17;;;;;;;2.05;0.70;;;;;;;18.04;64.58;100759.00;4880455;29;20040;-77
2022/07/22 04:30:42;;;;;;;1.85;0.80;;;;;;;18.01;64.52;100748.56;4852908;29;20009;-76
2022/07/22 04:33:08;;;;;;;2.08;0.63;;;;;;;18.00;64.86;100752.44;4903058;29;20044;-76
2022/07/22 04:35:33;;;;;;;1.38;0.63;;;;;;;17.98;64.88;100757.47;4882221;29;20044;-76
2022/07/22 04:37:59;;;;;;;0.93;0.47;;;;;;;17.96;64.72;100753.06;4876967;29;20029;-76
2022/07/22 04:40:24;;;;;;;1.55;0.60;;;;;;;17.96;64.67;100753.06;4885252;29;20040;-78
2022/07/22 04:42:50;;;;;;;2.05;0.80;;;;;;;17.98;64.87;100765.78;4887218;29;20053;-76
2022/07/22 04:45:15;;;;;;;0.90;0.60;;;;;;;18.01;64.99;100759.63;4891890;29;20077;-76
2022/07/22 04:47:40;;;;;;;1.17;0.73;;;;;;;18.09;64.32;100767.19;4897147;29;20095;-77
2022/07/22 04:50:06;;;;;;;0.82;0.60;;;;;;;18.14;64.66;100767.09;4885914;29;20056;-76
2022/07/22 04:52:32;;;;;;;3.78;1.00;;;;;;;18.19;64.17;100772.50;4884503;29;20032;-76
2022/07/22 04:54:58;;;;;;;3.60;1.00;;;;;;;18.32;63.46;100770.84;4885126;29;20036;-77
2022/07/22 04:57:25;;;;;;;3.72;0.65;;;;;;;18.41;63.33;100779.25;4896450;29;20020;-75
2022/07/22 04:59:52;;;;;;;3.47;0.82;;;;;;;18.37;63.84;100767.16;4866982;29;20116;-76
2022/07/22 05:02:18;;;;;;;5.82;1.13;;;;;;;18.48;63.04;100769.38;4890146;29;20044;-76
2022/07/22 05:04:43;;;;;;;2.80;0.90;;;;;;;18.48;63.44;100768.56;4884954;29;20044;-77
2022/07/22 05:07:09;;;;;;;3.28;1.00;;;;;;;18.56;63.02;100764.25;4886845;29;20428;-77
2022/07/22 05:09:34;;;;;;;5.47;1.23;;;;;;;18.63;62.55;100771.00;4870529;29;20385;-78
2022/07/22 05:12:00;;;;;;;3.95;0.60;;;;;;;18.63;63.13;100770.16;4901049;29;20037;-77
2022/07/22 05:14:26;;;;;;;1.77;0.73;;;;;;;18.71;62.49;100782.47;4863774;29;20059;-77
2022/07/22 05:16:52;;;;;;;1.60;0.57;;;;;;;18.67;62.81;100773.97;4870840;29;20056;-77
2022/07/22 05:19:17;;;;;;;3.22;0.90;;;;;;;18.63;62.54;100771.00;4884696;29;20036;-77
2022/07/22 05:21:43;;;;;;;1.10;0.60;;;;;;;18.66;62.73;100781.47;4885765;29;20047;-77
2022/07/22 05:24:09;;;;;;;3.35;0.85;;;;;;;18.58;63.08;100757.28;4900357;29;20052;-78
2022/07/22 05:26:35;;;;;;;1.23;0.50;;;;;;;18.66;62.90;100767.63;4883991;29;20036;-77
2022/07/22 05:29:03;;;;;;;1.20;0.60;;;;;;;18.76;62.61;100774.03;4872580;29;20205;-77
2022/07/22 05:31:29;;;;;;;2.60;0.75;;;;;;;18.67;62.74;100763.72;4853271;29;20122;-76
2022/07/22 05:33:54;;;;;;;1.73;0.73;;;;;;;18.68;62.68;100770.06;4883243;29;20028;-75
2022/07/22 05:36:19;;;;;;;2.60;0.70;;;;;;;18.73;62.82;100774.66;4868583;29;20040;-76
2022/07/22 05:38:45;;;;;;;1.35;0.60;;;;;;;18.75;62.81;100764.09;4884517;29;20097;-76
2022/07/22 05:41:10;;;;;;;3.33;0.43;;;;;;;18.81;62.77;100760.09;4865520;29;20040;-77
2022/07/22 05:43:38;;;;;;;1.50;0.65;;;;;;;18.86;62.51;100762.75;4883869;29;20059;-77
2022/07/22 05:46:04;;;;;;;2.60;0.73;;;;;;;18.87;62.17;100758.84;4901686;29;20058;-78
2022/07/22 05:48:29;;;;;;;2.53;0.70;;;;;;;18.95;62.10;100762.81;4882181;29;20060;-76
2022/07/22 05:50:54;;;;;;;1.42;0.70;;;;;;;19.03;62.00;100762.06;4870208;29;20036;-76
2022/07/22 05:53:20;;;;;;;2.50;0.80;;;;;;;19.16;61.63;100754.81;4871348;29;20084;-78
2022/07/22 05:56:17;;;;;;;3.15;0.68;;;;;;;19.27;61.20;100761.72;4886830;29;20120;-76
2022/07/22 06:09:06;;;;;;;1.48;0.70;;;;;;;19.64;60.50;100759.66;5032151;23;20505;-77
2022/07/22 06:11:31;;;;;;;2.50;0.70;;;;;;;19.59;60.46;100753.44;4867598;29;20021;-78
2022/07/22 06:13:57;;;;;;;1.55;0.70;;;;;;;19.58;60.82;100755.38;4885302;29;20057;-77
2022/07/22 06:16:22;;;;;;;2.53;1.15;;;;;;;19.48;60.59;100758.44;4866870;29;20048;-78
2022/07/22 06:18:47;;;;;;;3.38;0.80;;;;;;;19.50;60.56;100764.47;4869537;29;20033;-77
2022/07/22 06:21:13;;;;;;;3.15;0.82;;;;;;;19.58;60.64;100751.78;4868453;29;20048;-75
2022/07/22 06:23:42;;;;;;;8.52;1.17;;;;;;;19.71;60.43;100760.00;4852215;29;20041;-76
2022/07/22 06:26:08;;;;;;;5.47;0.93;;;;;;;19.92;60.30;100753.91;4866070;29;20092;-76
2022/07/22 06:28:48;;;;;;;3.47;1.20;;;;;;;20.12;60.04;100760.00;4868445;29;20110;-76
2022/07/22 06:31:16;;;;;;;1.45;0.73;;;;;;;20.30;59.34;100758.91;4880597;29;20049;-75
2022/07/22 06:33:42;;;;;;;3.60;1.02;;;;;;;20.49;58.99;100749.47;4868624;29;20067;-74
2022/07/22 06:36:07;;;;;;;3.83;1.33;;;;;;;20.65;58.28;100755.38;4880670;29;20041;-76
2022/07/22 06:38:33;;;;;;;2.85;0.95;;;;;;;20.71;58.25;100762.44;4885955;29;20037;-77
2022/07/22 06:40:58;;;;;;;6.63;1.42;;;;;;;20.84;57.89;100760.63;4840172;29;20460;-76
2022/07/22 06:43:24;;;;;;;5.25;1.25;;;;;;;20.88;57.99;100767.16;4869681;29;20511;-75
2022/07/22 06:45:50;;;;;;;6.60;1.13;;;;;;;20.79;58.00;100761.59;4883780;29;20036;-75
2022/07/22 06:48:16;;;;;;;3.08;0.90;;;;;;;20.65;57.91;100758.97;4882149;29;20057;-76
2022/07/22 06:50:42;;;;;;;4.68;1.25;;;;;;;20.50;58.55;100751.09;4878150;29;20089;-74
2022/07/22 06:53:07;;;;;;;3.90;1.15;;;;;;;20.48;58.73;100745.84;4831512;29;20088;-75
2022/07/22 06:55:32;;;;;;;5.97;1.30;;;;;;;20.49;59.02;100752.25;4865632;29;20042;-75
2022/07/22 06:57:58;;;;;;;5.22;1.05;;;;;;;20.45;58.61;100738.19;4834895;29;20097;-75
2022/07/22 07:00:24;;;;;;;4.72;1.08;;;;;;;20.54;58.97;100746.53;4845065;29;20089;-75
2022/07/22 07:02:49;;;;;;;4.20;1.40;;;;;;;20.67;58.48;100748.34;4844926;29;20029;-75
2022/07/22 07:05:15;;;;;;;4.28;1.08;;;;;;;20.94;57.55;100743.63;4876635;29;20029;-75
2022/07/22 07:07:40;;;;;;;3.10;1.52;;;;;;;21.03;57.24;100755.53;4844899;29;20057;-75
2022/07/22 07:10:06;;;;;;;6.28;1.40;;;;;;;20.90;57.54;100756.53;4848916;29;20041;-76
2022/07/22 07:12:32;;;;;;;6.97;1.60;;;;;;;20.76;58.06;100756.69;4882922;29;20081;-75
2022/07/22 07:14:58;;;;;;;6.43;1.23;;;;;;;20.64;58.10;100751.75;4838165;29;20033;-74
2022/07/22 07:17:24;;;;;;;5.18;1.20;;;;;;;20.68;58.47;100761.09;4866226;29;20086;-76
2022/07/22 07:19:49;;;;;;;7.25;1.70;;;;;;;20.65;58.43;100747.03;4870265;29;20021;-74
2022/07/22 07:22:18;;;;;;;4.47;1.25;;;;;;;20.68;58.40;100752.78;4881235;29;20033;-74
2022/07/22 07:24:43;;;;;;;2.75;1.17;;;;;;;20.56;58.72;100749.81;4863712;29;20043;-76
2022/07/22 07:27:09;;;;;;;6.25;1.52;;;;;;;20.73;58.62;100752.63;4864050;29;20116;-75
2022/07/22 07:29:36;;;;;;;5.50;2.65;;;;;;;21.13;58.21;100751.59;4877698;29;20100;-75
2022/07/22 07:32:02;;;;;;;5.78;1.60;;;;;;;21.64;56.57;100754.59;4865976;29;20033;-76
2022/07/22 07:34:28;;;;;;;7.90;1.52;;;;;;;22.02;55.15;100748.22;4839226;29;20052;-75
2022/07/22 07:36:53;;;;;;;3.67;1.30;;;;;;;22.23;54.96;100753.81;4849628;29;20045;-75
2022/07/22 07:39:19;;;;;;;6.07;1.63;;;;;;;22.39;53.93;100765.22;4873108;29;20104;-77
2022/07/22 07:41:44;;;;;;;3.88;1.20;;;;;;;22.64;53.91;100763.38;4862458;29;20488;-76
2022/07/22 07:44:12;;;;;;;6.68;1.17;;;;;;;22.97;53.13;100754.25;4862456;29;20033;-76
2022/07/22 07:46:38;;;;;;;7.38;1.85;;;;;;;23.23;51.83;100744.00;4883756;29;20114;-76
2022/07/22 07:49:03;;;;;;;5.43;1.35;;;;;;;23.52;51.21;100748.63;4867607;29;20149;-75
2022/07/22 07:51:29;;;;;;;2.78;0.98;;;;;;;23.93;50.13;100755.19;4850202;29;20033;-73
2022/07/22 07:53:54;;;;;;;7.05;1.42;;;;;;;24.17;49.95;100754.38;4866782;29;20507;-75
2022/07/22 07:56:20;;;;;;;3.90;1.20;;;;;;;24.05;49.69;100754.41;4883419;29;20030;-75
2022/07/22 07:58:45;;;;;;;4.18;1.20;;;;;;;24.03;49.64;100745.53;4837620;29;20037;-76
2022/07/22 08:01:12;;;;;;;5.28;1.77;;;;;;;24.13;50.12;100752.63;4836549;29;20424;-77
2022/07/22 08:03:37;;;;;;;6.38;2.15;;;;;;;23.97;49.57;100755.31;4884508;29;20401;-75
2022/07/22 08:06:03;;;;;;;6.68;2.00;;;;;;;23.48;50.72;100750.47;4849116;29;20041;-71
2022/07/22 08:08:28;;;;;;;5.22;2.22;;;;;;;23.02;52.16;100750.44;4863078;29;20519;-75
2022/07/22 08:10:54;;;;;;;4.28;1.70;;;;;;;22.69;53.15;100742.84;4851528;29;20025;-74
2022/07/22 08:13:23;;;;;;;4.82;1.90;;;;;;;22.58;53.12;100750.81;4864822;29;20046;-75
2022/07/22 08:15:48;;;;;;;2.53;1.63;;;;;;;22.59;53.49;100749.66;4868310;29;20044;-74
2022/07/22 08:18:14;;;;;;;4.00;1.40;;;;;;;22.73;53.11;100743.78;4877342;29;20096;-75
2022/07/22 08:20:39;;;;;;;3.50;1.42;;;;;;;23.12;53.12;100749.22;4856998;29;20029;-75
2022/07/22 08:23:05;;;;;;;2.95;1.50;;;;;;;23.56;51.94;100751.53;4862414;29;20093;-74
2022/07/22 08:25:31;;;;;;;4.47;1.67;;;;;;;23.80;50.84;100745.97;4872741;29;20396;-75
2022/07/22 08:27:56;;;;;;;3.05;1.40;;;;;;;24.05;50.47;100752.41;4860558;29;20021;-76
2022/07/22 08:30:27;;;;;;;2.17;1.15;;;;;;;24.19;50.11;100748.44;4862883;29;20483;-74
2022/07/22 08:32:53;;;;;;;11.93;1.77;;;;;;;24.39;50.21;100750.25;4875019;29;20033;-74
2022/07/22 08:35:22;;;;;;;4.97;1.50;;;;;;;24.32;49.88;100754.81;4881573;29;20048;-74
2022/07/22 08:37:48;;;;;;;2.10;0.85;;;;;;;24.02;50.75;100738.31;4882430;29;20052;-77
2022/07/22 08:40:22;;;;;;;5.10;1.30;;;;;;;23.53;50.55;100742.69;4857903;29;20060;-76
2022/07/22 08:42:50;;;;;;;2.85;1.13;;;;;;;23.11;52.17;100731.66;4871612;29;20039;-74
2022/07/22 08:45:16;;;;;;;3.47;1.10;;;;;;;23.12;52.35;100738.06;4847018;29;20441;-74
2022/07/22 08:47:45;;;;;;;9.00;1.75;;;;;;;23.10;51.94;100746.78;4849327;29;20037;-75
2022/07/22 08:50:11;;;;;;;4.53;1.30;;;;;;;22.98;51.83;100747.53;4877585;29;20029;-74
2022/07/22 08:52:36;;;;;;;5.18;1.20;;;;;;;22.83;52.43;100754.53;4860132;29;20041;-75
2022/07/22 08:55:07;;;;;;;8.27;1.38;;;;;;;22.80;52.87;100755.22;4864014;29;20148;-75
2022/07/22 08:57:32;;;;;;;4.70;1.60;;;;;;;22.64;53.03;100751.41;4858872;29;20036;-74
2022/07/22 09:00:00;;;;;;;4.53;1.50;;;;;;;22.44;53.45;100748.31;4874988;29;20064;-76
2022/07/22 09:02:27;;;;;;;3.65;1.25;;;;;;;22.28;53.42;100750.84;4882771;29;20025;-75
2022/07/22 09:04:58;;;;;;;4.72;1.58;;;;;;;22.25;53.46;100753.47;4863684;29;20548;-76
2022/07/22 09:07:34;;;;;;;7.10;1.83;;;;;;;22.03;54.30;100760.97;4876403;29;20029;-75
2022/07/22 09:10:01;;;;;;;2.25;1.02;;;;;;;22.14;54.60;100758.63;4880673;29;20025;-74
2022/07/22 09:12:28;;;;;;;2.83;1.60;;;;;;;22.54;53.56;100757.41;4841121;29;20033;-75
2022/07/22 09:14:57;;;;;;;4.00;1.40;;;;;;;22.76;53.20;100768.19;4861166;29;20060;-75
2022/07/22 09:17:26;;;;;;;3.58;1.30;;;;;;;23.00;52.29;100761.13;4881170;29;20029;-76
2022/07/22 09:19:52;;;;;;;7.22;1.63;;;;;;;23.04;52.13;100767.63;4865202;29;20029;-75
2022/07/22 09:22:37;;;;;;;3.35;1.20;;;;;;;23.57;52.35;100758.72;4877388;29;20037;-76
2022/07/22 09:25:25;;;;;;;2.17;1.00;;;;;;;24.46;50.79;100755.25;4882915;29;20033;-75
2022/07/22 09:27:52;;;;;;;3.72;1.63;;;;;;;25.00;48.13;100744.84;4881180;29;20031;-75
2022/07/22 09:30:25;;;;;;;4.25;1.95;;;;;;;25.49;47.71;100739.00;4882392;29;20039;-77
2022/07/22 09:32:56;;;;;;;13.68;3.45;;;;;;;25.52;45.42;100737.47;4867788;29;20021;-74
2022/07/22 09:35:22;;;;;;;5.90;1.73;;;;;;;25.29;46.72;100732.47;4881804;29;20139;-74
2022/07/22 09:37:56;;;;;;;7.50;2.92;;;;;;;24.92;46.53;100727.06;4883154;29;20500;-75
2022/07/22 09:40:26;;;;;;;6.07;2.70;;;;;;;24.69;47.52;100724.00;4880940;29;20530;-74
2022/07/22 09:42:58;;;;;;;9.25;2.85;;;;;;;24.57;48.05;100734.03;4862214;29;20048;-75
2022/07/22 09:45:26;;;;;;;9.13;2.20;;;;;;;24.18;48.48;100733.66;4879697;29;20041;-76
2022/07/22 09:47:54;;;;;;;6.93;2.20;;;;;;;24.07;49.51;100728.91;4885280;29;20036;-77
2022/07/22 09:50:31;;;;;;;7.03;2.05;;;;;;;24.53;48.97;100710.75;4884294;29;20048;-76
2022/07/22 09:52:58;;;;;;;6.22;2.10;;;;;;;25.18;47.26;100712.56;4883330;29;20032;-76
2022/07/22 09:55:26;;;;;;;5.38;2.08;;;;;;;25.47;46.47;100706.97;4883895;29;20033;-76
2022/07/22 09:57:54;;;;;;;4.57;2.30;;;;;;;25.81;45.56;100711.00;4885849;29;20036;-75
2022/07/22 10:00:22;;;;;;;7.30;1.85;;;;;;;26.19;45.30;100720.72;4880261;29;20035;-75
2022/07/22 10:02:49;;;;;;;8.50;1.63;;;;;;;26.80;44.11;100722.03;4866654;29;20029;-74
2022/07/22 10:05:19;;;;;;;5.78;1.75;;;;;;;27.05;42.69;100735.75;4886414;29;20065;-75
2022/07/22 10:07:46;;;;;;;3.45;2.08;;;;;;;27.20;42.16;100728.41;4864455;29;20552;-76
2022/07/22 10:10:14;;;;;;;5.53;1.90;;;;;;;26.83;42.87;100726.09;4860376;29;20033;-74
2022/07/22 10:12:40;;;;;;;4.78;1.60;;;;;;;26.60;43.19;100711.97;4864736;29;20368;-74
2022/07/22 10:15:08;;;;;;;4.38;1.70;;;;;;;26.51;43.25;100720.59;4884356;29;20057;-75
2022/07/22 10:17:36;;;;;;;5.63;1.95;;;;;;;26.49;43.48;100711.75;4862697;29;20561;-75
2022/07/22 10:20:03;;;;;;;10.45;2.60;;;;;;;26.46;42.78;100723.72;4867376;29;20465;-73
2022/07/22 10:22:47;;;;;;;5.72;1.90;;;;;;;26.24;43.21;100728.00;4881448;29;20056;-73
2022/07/22 10:25:15;;;;;;;6.13;1.67;;;;;;;25.69;44.31;100737.13;4865079;29;20025;-75
2022/07/22 10:27:57;;;;;;;8.02;2.22;;;;;;;25.12;45.31;100728.00;4881338;29;20076;-75
2022/07/22 10:30:28;;;;;;;8.40;1.77;;;;;;;24.86;45.63;100723.69;4882358;29;20041;-75
2022/07/22 10:33:12;;;;;;;10.90;1.67;;;;;;;24.75;46.20;100728.19;4883580;29;20172;-76
2022/07/22 10:35:54;;;;;;;3.63;1.30;;;;;;;24.82;46.34;100727.56;4881870;29;20013;-75
2022/07/22 10:38:21;;;;;;;7.28;1.83;;;;;;;24.71;46.52;100741.25;4867156;29;20024;-76
2022/07/22 10:40:57;;;;;;;5.18;1.80;;;;;;;24.21;47.57;100732.13;4884862;29;20054;-75
2022/07/22 10:43:45;;;;;;;5.57;1.92;;;;;;;23.88;48.27;100725.53;4865906;29;20029;-75
2022/07/22 10:46:10;;;;;;;6.50;2.22;;;;;;;23.75;48.88;100731.44;4876681;29;20047;-74
2022/07/22 10:48:36;;;;;;;15.07;3.00;;;;;;;23.94;47.57;100733.69;4866481;29;20037;-74
2022/07/22 10:51:13;;;;;;;4.97;1.92;;;;;;;23.94;48.17;100736.47;4882046;29;20067;-74
2022/07/22 10:53:40;;;;;;;6.63;2.08;;;;;;;24.30;48.39;100734.78;4882018;29;20029;-74
2022/07/22 10:56:11;;;;;;;5.80;1.85;;;;;;;24.79;47.01;100723.50;4873544;29;20036;-73
2022/07/22 10:58:38;;;;;;;7.30;1.75;;;;;;;25.26;45.57;100736.78;4863933;29;20025;-74
2022/07/22 11:01:06;;;;;;;9.98;2.22;;;;;;;25.25;45.63;100723.16;4862778;29;20048;-74
2022/07/22 11:03:33;;;;;;;4.68;2.00;;;;;;;25.32;45.57;100716.97;4880706;29;20066;-75
2022/07/22 11:06:19;;;;;;;4.60;1.90;;;;;;;25.82;45.15;100718.22;4880892;29;20124;-74
2022/07/22 11:08:47;;;;;;;6.15;1.88;;;;;;;26.08;44.05;100714.03;4865423;29;20061;-74
2022/07/22 11:11:12;;;;;;;4.28;1.80;;;;;;;25.88;43.77;100711.16;4868424;29;20044;-74
2022/07/22 11:13:40;;;;;;;6.50;1.73;;;;;;;26.36;44.19;100704.69;4852048;29;20033;-74
2022/07/22 11:16:22;;;;;;;6.50;1.83;;;;;;;27.18;42.33;100708.34;4880901;29;20063;-74
2022/07/22 11:19:00;;;;;;;2.92;1.20;;;;;;;28.02;42.35;100705.75;4879684;29;20033;-73
2022/07/22 11:21:27;;;;;;;3.35;1.40;;;;;;;29.10;40.45;100707.13;4883774;29;20029;-75
2022/07/22 11:23:56;;;;;;;3.17;1.13;;;;;;;29.85;38.94;100706.25;4882579;29;20025;-74
2022/07/22 11:26:31;;;;;;;3.28;1.17;;;;;;;30.18;35.17;100710.84;4884289;29;20408;-73
2022/07/22 11:28:57;;;;;;;6.10;1.45;;;;;;;30.49;34.63;100707.81;4883474;29;20033;-73
2022/07/22 11:31:22;;;;;;;3.58;0.95;;;;;;;31.87;32.62;100706.88;4864206;29;20089;-74
2022/07/22 11:33:48;;;;;;;2.85;1.17;;;;;;;33.55;30.22;100725.16;4864896;29;20045;-73
2022/07/22 11:36:14;;;;;;;3.78;1.50;;;;;;;34.44;27.11;100724.72;4852952;29;20036;-74
2022/07/22 11:38:50;;;;;;;2.47;1.13;;;;;;;36.44;26.56;100713.44;4880460;29;20104;-73